Skip Navigation LinksHome page > Weather > Current weather Skip Navigation Links

Current Weather

Jakutsk, Russia

For information only: do not use for flight planning or navigation.
Latest weather
Observation time Thursday, May 5, 2016 10:30 PM JST
Local time Thursday, May 5, 2016 11:13 PM JST
Flight conditions Visual Meteorological Conditions
Winds
Wind direction West-Southwest (240°)
Wind speed 2 mph
Visibility 6.2 mi.
Sky condition
Ceiling unlimited
Cloud layer few clouds with cumulonimbus 5,000 ft.
Temperature 36°F
Dewpoint 21°F
Altimeter 29.80 in.Hg
Precipitation
QF 10:28 AM
Derived measurements
Relative humidity 55%
Wind chill 36°F
Density altitude -1035 ft.
Remarks
No significant changes expected in the next two hours.
METAR UEEE 051330Z 24001MPS 9999 FEW050CB 02/M06 Q1009 R23L/09//60 NOSIG RMK QFE748

Settings

Location code

InnerDrive.Weather 4.0.5722.1 Release CLR 4.0.30319.34209
Copyright ©2015 Inner Drive Technology. All rights reserved. Portions Copyright ©1986-2015 David Braverman.

Find weather

Site navigation


Skip Navigation Links

Place info

Page info

PayPal - The safer, easier way to pay online!

Return home.

Copyright ©2016 Inner Drive Technology. Purveyors of fine, hand-crafted computer software. Page printed 2016-05-05T14:13:58 UTC.